CheckWX is a tool to help pilots better visualize weather data.  It is not intended as a substitute for an official pre-flight weather briefing.

04:35:58 UTC

SELT TAF
Cotopaxi International Airport
Latacunga, Ecuador
SELT 162230Z 1700/1724 18006KT 9999 SCT033 BECMG 1714/1715 16016KT TX18/1719Z TN06/1711Z

Sep-17@
00:00 UTC

Sep-17 @ 00:00 UTC

Sep-17@
14:00 UTC

Sep-17 @ 14:00 UTC

SELT 162230Z 1700/1724 18006KT 9999 SCT033
Wind
  • 180° at 6 KTS
Cloud Levels
  • Scattered at 3,300' AGL

Sep-17@
14:00 UTC

Sep-17 @ 14:00 UTC

Sep-18@
00:00 UTC

Sep-18 @ 00:00 UTC

BECMG 1714/1715 16016KT TX18/1719Z TN06/1711Z

Becoming

Becoming Conditions expected by Tue, Sep 17, 2019 @ 15:00 UTC

Wind
  • 160° at 16 KTS
Cloud Levels
  • Scattered at 3,300' AGL